createdAt,value
2023-10-17T00:01:34.362Z,99637.42
2023-10-17T00:04:12.844Z,99637.02
2023-10-17T00:06:40.966Z,99634.34
2023-10-17T00:09:09.322Z,99631.30
2023-10-17T00:11:59.830Z,99632.65
2023-10-17T00:14:50.712Z,99630.67
2023-10-17T00:17:18.683Z,99631.85
2023-10-17T00:19:46.798Z,99629.70
2023-10-17T00:22:19.549Z,99626.33
2023-10-17T00:24:48.459Z,99625.59
2023-10-17T00:27:16.892Z,99628.14
2023-10-17T00:29:45.021Z,99625.88
2023-10-17T00:32:14.165Z,99622.48
2023-10-17T00:34:42.266Z,99623.57
2023-10-17T00:37:13.190Z,99624.08
2023-10-17T00:39:41.376Z,99623.90
2023-10-17T00:42:09.792Z,99623.50
2023-10-17T00:44:45.366Z,99629.21
2023-10-17T00:47:14.486Z,99628.16
2023-10-17T00:49:43.342Z,99629.89
2023-10-17T00:52:19.248Z,99630.94
2023-10-17T00:54:48.521Z,99631.31
2023-10-17T00:57:16.803Z,99632.74
2023-10-17T00:59:54.689Z,99630.62
2023-10-17T01:02:25.287Z,99630.56
2023-10-17T01:04:53.971Z,99630.42
2023-10-17T01:07:31.482Z,99631.30
2023-10-17T01:10:18.101Z,99632.73
2023-10-17T01:13:04.588Z,99634.30
2023-10-17T01:15:39.907Z,99632.46
2023-10-17T01:18:08.153Z,99633.45
2023-10-17T01:20:37.092Z,99635.19
2023-10-17T01:23:05.611Z,99636.98
2023-10-17T01:25:36.856Z,99634.70
2023-10-17T01:28:07.840Z,99635.90
2023-10-17T01:30:35.973Z,99633.92
2023-10-17T01:33:04.312Z,99631.48
2023-10-17T01:35:33.868Z,99632.58
2023-10-17T01:38:01.901Z,99631.88
2023-10-17T01:40:30.172Z,99629.23
2023-10-17T01:42:58.641Z,99628.23
2023-10-17T01:45:29.056Z,99628.05
2023-10-17T01:47:57.430Z,99626.73
2023-10-17T01:50:25.781Z,99629.98
2023-10-17T01:53:01.101Z,99631.58
2023-10-17T01:55:29.907Z,99632.75
2023-10-17T01:57:59.705Z,99634.62
2023-10-17T02:00:40.306Z,99636.44
2023-10-17T02:03:09.117Z,99636.87
2023-10-17T02:05:37.569Z,99633.07
2023-10-17T02:08:06.784Z,99629.91
2023-10-17T02:10:35.076Z,99626.27
2023-10-17T02:13:06.124Z,99625.42
2023-10-17T02:15:35.800Z,99627.89
2023-10-17T02:18:13.873Z,99627.72
2023-10-17T02:20:54.635Z,99627.89
2023-10-17T02:23:27.238Z,99625.66
2023-10-17T02:25:56.085Z,99624.11
2023-10-17T02:28:25.806Z,99622.91
2023-10-17T02:30:54.082Z,99619.08
2023-10-17T02:33:22.333Z,99617.17
2023-10-17T02:36:14.497Z,99615.29
2023-10-17T02:38:43.137Z,99616.54
2023-10-17T02:41:14.611Z,99617.29
2023-10-17T02:43:43.142Z,99619.12
2023-10-17T02:46:13.876Z,99619.89
2023-10-17T02:48:47.392Z,99622.98
2023-10-17T02:51:23.712Z,99625.21
2023-10-17T02:53:53.298Z,99624.33
2023-10-17T02:56:22.327Z,99623.59
2023-10-17T02:59:00.658Z,99627.40
2023-10-17T03:01:28.932Z,99627.80
2023-10-17T03:03:56.915Z,99629.71
2023-10-17T03:06:25.027Z,99634.41
2023-10-17T03:08:53.262Z,99636.86
2023-10-17T03:11:37.146Z,99638.59
2023-10-17T03:14:14.048Z,99633.67
2023-10-17T03:16:44.776Z,99634.54
2023-10-17T03:19:14.272Z,99632.92
2023-10-17T03:21:45.297Z,99633.06
2023-10-17T03:24:14.475Z,99633.94
2023-10-17T03:26:55.360Z,99634.30
2023-10-17T03:29:24.845Z,99637.09
2023-10-17T03:32:04.984Z,99637.42
2023-10-17T03:34:36.827Z,99637.10
2023-10-17T03:37:29.545Z,99638.17
2023-10-17T03:40:02.227Z,99637.33
2023-10-17T03:42:50.525Z,99632.12
2023-10-17T03:45:19.627Z,99631.16
2023-10-17T03:47:49.356Z,99629.36
2023-10-17T03:50:33.071Z,99629.60
2023-10-17T03:53:06.471Z,99631.25
2023-10-17T03:55:36.812Z,99629.92
2023-10-17T03:58:19.880Z,99634.19
2023-10-17T04:00:48.102Z,99634.77
2023-10-17T04:03:31.835Z,99635.38
2023-10-17T04:06:22.233Z,99632.58
2023-10-17T04:08:50.506Z,99634.47
2023-10-17T04:11:24.336Z,99636.16
2023-10-17T04:13:58.445Z,99640.80
2023-10-17T04:16:40.128Z,99639.63
2023-10-17T04:19:27.270Z,99636.59
2023-10-17T04:22:06.388Z,99638.46
2023-10-17T04:24:40.290Z,99638.45
2023-10-17T04:27:08.720Z,99633.67
2023-10-17T04:29:36.925Z,99631.98
2023-10-17T04:32:13.773Z,99630.81
2023-10-17T04:34:48.233Z,99632.09
2023-10-17T04:37:18.328Z,99630.02
2023-10-17T04:39:50.673Z,99630.38
2023-10-17T04:42:27.674Z,99632.53
2023-10-17T04:45:04.805Z,99634.09
2023-10-17T04:47:33.610Z,99632.84
2023-10-17T04:50:02.977Z,99636.48
2023-10-17T04:52:41.890Z,99636.95
2023-10-17T04:55:20.133Z,99635.85
2023-10-17T04:57:54.859Z,99633.83
2023-10-17T05:00:39.276Z,99633.47
2023-10-17T05:03:30.571Z,99635.02
2023-10-17T05:06:15.436Z,99636.94
2023-10-17T05:09:02.733Z,99636.86
2023-10-17T05:11:49.467Z,99639.82
2023-10-17T05:14:52.263Z,99645.30
2023-10-17T05:17:39.329Z,99645.69
2023-10-17T05:20:26.853Z,99647.61
2023-10-17T05:23:13.357Z,99646.34
2023-10-17T05:26:00.155Z,99652.08
2023-10-17T05:28:57.759Z,99652.03
2023-10-17T05:31:52.413Z,99653.71
2023-10-17T05:34:38.970Z,99656.30
2023-10-17T05:37:25.466Z,99658.11
2023-10-17T05:40:12.036Z,99659.88
2023-10-17T05:42:58.434Z,99663.08
2023-10-17T05:45:45.124Z,99664.48
2023-10-17T05:48:31.681Z,99661.35
2023-10-17T05:51:18.405Z,99665.92
2023-10-17T05:54:31.186Z,99669.69
2023-10-17T05:57:15.552Z,99674.29
2023-10-17T06:00:02.320Z,99669.63
2023-10-17T06:02:51.507Z,99670.56
2023-10-17T06:05:38.125Z,99673.73
2023-10-17T06:08:24.848Z,99679.14
2023-10-17T06:11:15.183Z,99679.60
2023-10-17T06:14:01.592Z,99677.77
2023-10-17T06:16:48.203Z,99683.67
2023-10-17T06:19:22.810Z,99684.50
2023-10-17T06:22:03.510Z,99691.55
2023-10-17T06:24:47.190Z,99694.63
2023-10-17T06:27:35.668Z,99694.33
2023-10-17T06:30:23.248Z,99696.33
2023-10-17T06:33:03.741Z,99701.31
2023-10-17T06:35:33.235Z,99700.21
2023-10-17T06:38:01.464Z,99702.73
2023-10-17T06:40:45.644Z,99699.48
2023-10-17T06:43:15.665Z,99701.29
2023-10-17T06:45:56.360Z,99701.90
2023-10-17T06:48:34.044Z,99702.35
2023-10-17T06:51:22.352Z,99704.61
2023-10-17T06:53:53.293Z,99703.45
2023-10-17T06:56:21.302Z,99701.52
2023-10-17T06:58:51.745Z,99704.11
2023-10-17T07:01:26.834Z,99703.91
2023-10-17T07:03:57.883Z,99705.13
2023-10-17T07:06:26.127Z,99706.55
2023-10-17T07:08:54.722Z,99706.74
2023-10-17T07:11:27.701Z,99710.90
2023-10-17T07:14:11.406Z,99712.02
2023-10-17T07:16:42.645Z,99712.63
2023-10-17T07:19:31.300Z,99714.57
2023-10-17T07:22:02.758Z,99717.55
2023-10-17T07:24:38.650Z,99716.38
2023-10-17T07:27:20.506Z,99716.96
2023-10-17T07:30:11.431Z,99716.63
2023-10-17T07:32:50.779Z,99714.67
2023-10-17T07:35:25.707Z,99715.98
2023-10-17T07:37:57.660Z,99715.16
2023-10-17T07:40:41.845Z,99714.05
2023-10-17T07:43:10.033Z,99710.73
2023-10-17T07:45:41.104Z,99708.98
2023-10-17T07:48:26.817Z,99705.85
2023-10-17T07:50:59.053Z,99706.17
2023-10-17T07:53:33.434Z,99707.96
2023-10-17T07:56:13.913Z,99709.20
2023-10-17T07:58:44.719Z,99714.86
2023-10-17T08:01:17.084Z,99710.10
2023-10-17T08:03:56.933Z,99709.66
2023-10-17T08:06:30.690Z,99708.14
2023-10-17T08:09:00.797Z,99706.23
2023-10-17T08:11:31.850Z,99709.70
2023-10-17T08:14:10.135Z,99712.95
2023-10-17T08:16:44.654Z,99712.08
2023-10-17T08:19:25.193Z,99712.34
2023-10-17T08:22:08.179Z,99712.95
2023-10-17T08:24:45.607Z,99714.14
2023-10-17T08:27:22.656Z,99714.69
2023-10-17T08:30:06.553Z,99714.36
2023-10-17T08:32:40.865Z,99713.30
2023-10-17T08:35:19.100Z,99714.44
2023-10-17T08:37:48.579Z,99714.59
2023-10-17T08:40:35.408Z,99716.98
2023-10-17T08:43:18.001Z,99715.67
2023-10-17T08:45:52.189Z,99714.48
2023-10-17T08:48:21.218Z,99714.02
2023-10-17T08:50:49.708Z,99709.95
2023-10-17T08:53:24.938Z,99710.51
2023-10-17T08:55:53.587Z,99706.02
2023-10-17T08:58:26.313Z,99704.77
2023-10-17T09:00:57.890Z,99707.27
2023-10-17T09:03:37.575Z,99705.11
2023-10-17T09:06:15.585Z,99707.11
2023-10-17T09:09:02.627Z,99703.27
2023-10-17T09:11:31.144Z,99705.13
2023-10-17T09:14:19.005Z,99706.70
2023-10-17T09:17:25.214Z,99709.23
2023-10-17T09:19:54.143Z,99711.76
2023-10-17T09:22:25.275Z,99707.11
2023-10-17T09:24:53.406Z,99705.39
2023-10-17T09:27:21.473Z,99704.77
2023-10-17T09:29:52.808Z,99705.52
2023-10-17T09:32:36.036Z,99704.29
2023-10-17T09:35:12.710Z,99702.38
2023-10-17T09:37:43.107Z,99705.26
2023-10-17T09:40:19.954Z,99703.20
2023-10-17T09:42:48.821Z,99706.72
2023-10-17T09:45:33.165Z,99701.55
2023-10-17T09:48:06.808Z,99698.79
2023-10-17T09:50:38.558Z,99694.79
2023-10-17T09:53:21.000Z,99693.95
2023-10-17T09:55:50.732Z,99692.89
2023-10-17T09:58:24.365Z,99685.51
2023-10-17T10:00:57.933Z,99682.94
2023-10-17T10:03:29.418Z,99679.44
2023-10-17T10:06:21.143Z,99679.33
2023-10-17T10:08:49.848Z,99676.95
2023-10-17T10:11:17.852Z,99675.72
2023-10-17T10:14:09.531Z,99672.29
2023-10-17T10:16:53.860Z,99668.59
2023-10-17T10:19:43.604Z,99666.17
2023-10-17T10:22:14.617Z,99662.52
2023-10-17T10:24:44.679Z,99661.67
2023-10-17T10:27:15.809Z,99658.61
2023-10-17T10:29:48.004Z,99652.90
2023-10-17T10:32:34.610Z,99654.06
2023-10-17T10:35:05.242Z,99648.88
2023-10-17T10:37:48.836Z,99643.85
2023-10-17T10:40:27.348Z,99640.30
2023-10-17T10:43:02.326Z,99636.11
2023-10-17T10:45:38.215Z,99632.61
2023-10-17T10:48:18.785Z,99625.27
2023-10-17T10:50:49.763Z,99623.73
2023-10-17T10:53:25.651Z,99620.26
2023-10-17T10:56:02.141Z,99615.94
2023-10-17T10:58:32.410Z,99613.92
2023-10-17T11:01:03.577Z,99605.48
2023-10-17T11:03:34.785Z,99603.77
2023-10-17T11:06:09.421Z,99599.77
2023-10-17T11:08:47.542Z,99591.65
2023-10-17T11:11:17.924Z,99589.26
2023-10-17T11:13:51.235Z,99590.86
2023-10-17T11:16:22.427Z,99593.17
2023-10-17T11:18:50.907Z,99597.95
2023-10-17T11:21:21.589Z,99597.46
2023-10-17T11:23:52.076Z,99597.93
2023-10-17T11:26:29.308Z,99597.79
2023-10-17T11:28:59.681Z,99592.67
2023-10-17T11:31:28.247Z,99585.35
2023-10-17T11:34:04.452Z,99587.04
2023-10-17T11:36:46.757Z,99586.15
2023-10-17T11:39:19.735Z,99582.55
2023-10-17T11:41:56.283Z,99578.09
2023-10-17T11:44:26.842Z,99575.80
2023-10-17T11:47:04.998Z,99574.23
2023-10-17T11:49:42.922Z,99574.16
2023-10-17T11:52:14.430Z,99570.40
2023-10-17T11:54:56.927Z,99573.51
2023-10-17T11:57:26.621Z,99572.39
2023-10-17T12:00:20.830Z,99571.91
2023-10-17T12:02:50.302Z,99565.71
2023-10-17T12:05:20.322Z,99562.89
2023-10-17T12:07:51.253Z,99560.15
2023-10-17T12:10:21.075Z,99555.94
2023-10-17T12:12:53.666Z,99556.64
2023-10-17T12:15:22.265Z,99549.91
2023-10-17T12:17:51.381Z,99545.95
2023-10-17T12:20:27.589Z,99549.05
2023-10-17T12:22:57.266Z,99548.44
2023-10-17T12:25:25.684Z,99547.31
2023-10-17T12:27:58.541Z,99550.55
2023-10-17T12:30:33.877Z,99550.67
2023-10-17T12:33:01.887Z,99552.02
2023-10-17T12:35:29.986Z,99551.31
2023-10-17T12:38:07.919Z,99554.02
2023-10-17T12:40:35.871Z,99551.66
2023-10-17T12:43:04.092Z,99550.60
2023-10-17T12:45:32.172Z,99547.23
2023-10-17T12:48:00.635Z,99543.77
2023-10-17T12:50:29.248Z,99539.27
2023-10-17T12:52:57.265Z,99538.50
2023-10-17T12:55:25.278Z,99533.98
2023-10-17T12:57:53.317Z,99531.73
2023-10-17T13:00:27.150Z,99531.46
2023-10-17T13:02:57.315Z,99529.16
2023-10-17T13:05:27.529Z,99526.08
2023-10-17T13:07:55.902Z,99527.44
2023-10-17T13:10:24.308Z,99529.08
2023-10-17T13:12:52.449Z,99531.98
2023-10-17T13:15:20.644Z,99526.41
2023-10-17T13:17:53.519Z,99525.16
2023-10-17T13:20:34.889Z,99529.03
2023-10-17T13:23:12.913Z,99525.20
2023-10-17T13:25:41.160Z,99524.36
2023-10-17T13:28:09.164Z,99524.87
2023-10-17T13:30:37.678Z,99524.73
2023-10-17T13:33:06.206Z,99525.38
2023-10-17T13:35:38.469Z,99521.34
2023-10-17T13:38:06.778Z,99519.09
2023-10-17T13:40:34.986Z,99522.48
2023-10-17T13:43:03.051Z,99518.88
2023-10-17T13:45:36.520Z,99519.38
2023-10-17T13:48:06.008Z,99517.27
2023-10-17T13:50:34.131Z,99516.39
2023-10-17T13:53:08.215Z,99516.73
2023-10-17T13:55:42.695Z,99516.55
2023-10-17T13:58:12.985Z,99513.44
2023-10-17T14:00:44.517Z,99507.14
2023-10-17T14:03:16.038Z,99502.75
2023-10-17T14:05:48.949Z,99501.61
2023-10-17T14:08:19.649Z,99503.36
2023-10-17T14:10:50.567Z,99503.90
2023-10-17T14:13:19.752Z,99498.50
2023-10-17T14:15:48.982Z,99499.33
2023-10-17T14:18:18.068Z,99495.64
2023-10-17T14:21:05.478Z,99495.99
2023-10-17T14:23:46.853Z,99494.08
2023-10-17T14:26:16.841Z,99496.51
2023-10-17T14:28:45.336Z,99493.27
2023-10-17T14:31:13.469Z,99490.66
2023-10-17T14:33:41.546Z,99485.22
2023-10-17T14:36:14.626Z,99485.08
2023-10-17T14:38:43.079Z,99483.17
2023-10-17T14:41:13.037Z,99481.90
2023-10-17T14:43:50.792Z,99479.77
2023-10-17T14:46:21.874Z,99479.00
2023-10-17T14:48:50.117Z,99476.09
2023-10-17T14:51:18.271Z,99478.13
2023-10-17T14:53:51.721Z,99479.67
2023-10-17T14:56:22.933Z,99483.96
2023-10-17T14:58:51.813Z,99484.54
2023-10-17T15:01:20.777Z,99489.36
2023-10-17T15:03:49.950Z,99494.31
2023-10-17T15:06:19.254Z,99495.16
2023-10-17T15:08:47.442Z,99492.94
2023-10-17T15:11:15.765Z,99492.67
2023-10-17T15:13:45.299Z,99489.38
2023-10-17T15:16:17.914Z,99490.44
2023-10-17T15:18:46.705Z,99488.45
2023-10-17T15:21:16.681Z,99489.58
2023-10-17T15:23:44.941Z,99485.06
2023-10-17T15:26:13.263Z,99484.25
2023-10-17T15:28:45.750Z,99481.05
2023-10-17T15:31:18.116Z,99482.12
2023-10-17T15:33:46.747Z,99481.41
2023-10-17T15:36:15.218Z,99480.82
2023-10-17T15:38:44.229Z,99483.27
2023-10-17T15:41:17.325Z,99488.58
2023-10-17T15:43:46.802Z,99492.55
2023-10-17T15:46:16.953Z,99490.43
2023-10-17T15:48:45.895Z,99488.51
2023-10-17T15:51:21.267Z,99483.27
2023-10-17T15:53:49.667Z,99477.28
2023-10-17T15:56:17.840Z,99471.75
2023-10-17T15:58:47.229Z,99471.73
2023-10-17T16:01:15.460Z,99474.52
2023-10-17T16:03:47.856Z,99474.80
2023-10-17T16:06:17.147Z,99475.21
2023-10-17T16:08:47.109Z,99478.05
2023-10-17T16:11:17.403Z,99484.42
2023-10-17T16:13:45.807Z,99492.25
2023-10-17T16:16:14.435Z,99500.77
2023-10-17T16:18:42.891Z,99503.27
2023-10-17T16:21:11.706Z,99499.38
2023-10-17T16:23:40.358Z,99497.52
2023-10-17T16:26:10.059Z,99502.13
2023-10-17T16:28:38.235Z,99505.89
2023-10-17T16:31:09.301Z,99502.87
2023-10-17T16:33:37.542Z,99497.04
2023-10-17T16:36:07.361Z,99498.36
2023-10-17T16:38:35.615Z,99499.73
2023-10-17T16:41:04.780Z,99505.58
2023-10-17T16:43:33.401Z,99507.52
2023-10-17T16:46:02.194Z,99507.12
2023-10-17T16:48:30.937Z,99503.29
2023-10-17T16:50:59.330Z,99507.59
2023-10-17T16:53:32.120Z,99506.95
2023-10-17T16:56:04.385Z,99505.45
2023-10-17T16:58:35.858Z,99500.88
2023-10-17T17:01:08.310Z,99500.55
2023-10-17T17:03:37.090Z,99502.80
2023-10-17T17:06:09.501Z,99505.36
2023-10-17T17:08:38.344Z,99510.54
2023-10-17T17:11:06.639Z,99509.23
2023-10-17T17:13:35.609Z,99508.33
2023-10-17T17:16:04.683Z,99505.60
2023-10-17T17:21:09.787Z,99506.95
2023-10-17T17:23:38.657Z,99509.86
2023-10-17T17:26:09.019Z,99509.61
2023-10-17T17:28:37.186Z,99509.73
2023-10-17T17:31:07.135Z,99511.54
2023-10-17T17:33:35.560Z,99513.27
2023-10-17T17:36:05.784Z,99511.90
2023-10-17T17:38:36.313Z,99501.64
2023-10-17T17:41:06.736Z,99496.27
2023-10-17T17:43:35.494Z,99499.36
2023-10-17T17:46:07.245Z,99499.41
2023-10-17T17:48:36.599Z,99494.73
2023-10-17T17:51:05.162Z,99490.50
2023-10-17T17:53:33.371Z,99492.20
2023-10-17T17:56:02.417Z,99492.11
2023-10-17T17:58:31.989Z,99491.92
2023-10-17T18:01:01.344Z,99490.14
2023-10-17T18:03:29.607Z,99484.71
2023-10-17T18:05:57.739Z,99485.06
2023-10-17T18:08:27.378Z,99484.93
2023-10-17T18:10:55.438Z,99483.61
2023-10-17T18:13:23.999Z,99487.16
2023-10-17T18:15:54.825Z,99485.98
2023-10-17T18:18:23.552Z,99487.65
2023-10-17T18:21:08.817Z,99488.23
2023-10-17T18:23:39.458Z,99482.49
2023-10-17T18:26:14.546Z,99478.43
2023-10-17T18:28:42.862Z,99480.49
2023-10-17T18:31:15.202Z,99482.02
2023-10-17T18:33:45.376Z,99483.27
2023-10-17T18:36:15.178Z,99480.20
2023-10-17T18:38:47.374Z,99477.30
2023-10-17T18:41:15.714Z,99470.36
2023-10-17T18:43:44.050Z,99467.83
2023-10-17T18:46:13.843Z,99462.69
2023-10-17T18:48:42.271Z,99464.31
2023-10-17T18:51:11.934Z,99464.30
2023-10-17T18:53:40.409Z,99463.50
2023-10-17T18:56:10.099Z,99462.73
2023-10-17T18:58:40.551Z,99463.58
2023-10-17T19:01:14.840Z,99461.69
2023-10-17T19:03:45.564Z,99460.74
2023-10-17T19:06:14.668Z,99460.69
2023-10-17T19:08:43.988Z,99462.83
2023-10-17T19:11:13.813Z,99468.95
2023-10-17T19:13:42.913Z,99470.86
2023-10-17T19:16:12.355Z,99474.73
2023-10-17T19:18:41.655Z,99476.61
2023-10-17T19:21:13.665Z,99475.17
2023-10-17T19:23:44.759Z,99467.30
2023-10-17T19:26:14.497Z,99467.99
2023-10-17T19:28:46.602Z,99470.83
2023-10-17T19:31:15.736Z,99477.86
2023-10-17T19:33:43.882Z,99480.99
2023-10-17T19:36:12.063Z,99483.86
2023-10-17T19:38:41.087Z,99488.50
2023-10-17T19:41:10.224Z,99486.01
2023-10-17T19:43:38.203Z,99486.44
2023-10-17T19:46:07.376Z,99484.33
2023-10-17T19:48:35.813Z,99483.45
2023-10-17T19:51:11.479Z,99482.93
2023-10-17T19:53:44.325Z,99481.34
2023-10-17T19:56:13.296Z,99479.77
2023-10-17T19:58:42.386Z,99476.31
2023-10-17T20:01:12.554Z,99475.64
2023-10-17T20:03:40.966Z,99474.51
2023-10-17T20:06:09.206Z,99474.03
2023-10-17T20:08:37.432Z,99472.34
2023-10-17T20:11:06.687Z,99474.83
2023-10-17T20:13:34.820Z,99473.25
2023-10-17T20:16:07.106Z,99480.59
2023-10-17T20:18:38.251Z,99488.60
2023-10-17T20:21:07.951Z,99488.73
2023-10-17T20:23:39.287Z,99483.77
2023-10-17T20:26:07.331Z,99481.81
2023-10-17T20:28:36.371Z,99481.61
2023-10-17T20:31:16.646Z,99481.58
2023-10-17T20:33:53.570Z,99476.31
2023-10-17T20:36:23.898Z,99475.20
2023-10-17T20:38:51.988Z,99473.92
2023-10-17T20:41:27.628Z,99467.23
2023-10-17T20:43:56.061Z,99457.11
2023-10-17T20:46:28.483Z,99458.99
2023-10-17T20:49:00.149Z,99459.67
2023-10-17T20:51:28.363Z,99457.93
2023-10-17T20:53:56.495Z,99460.55
2023-10-17T20:56:38.589Z,99461.08
2023-10-17T20:59:12.013Z,99459.73
2023-10-17T21:01:40.453Z,99460.45
2023-10-17T21:04:08.749Z,99457.62
2023-10-17T21:06:36.923Z,99449.54
2023-10-17T21:09:06.250Z,99442.35
2023-10-17T21:11:34.222Z,99446.38
2023-10-17T21:14:02.226Z,99442.75
2023-10-17T21:16:30.379Z,99445.20
2023-10-17T21:18:58.889Z,99442.23
2023-10-17T21:21:27.274Z,99444.11
2023-10-17T21:23:55.474Z,99447.92
2023-10-17T21:26:23.558Z,99449.28
2023-10-17T21:28:51.822Z,99449.23
2023-10-17T21:31:20.070Z,99446.52
2023-10-17T21:33:48.176Z,99444.19
2023-10-17T21:36:16.248Z,99446.41
2023-10-17T21:38:46.114Z,99446.30
2023-10-17T21:41:14.361Z,99443.08
2023-10-17T21:43:42.424Z,99439.65
2023-10-17T21:46:12.720Z,99439.92
2023-10-17T21:48:46.237Z,99435.66
2023-10-17T21:51:16.208Z,99436.98
2023-10-17T21:53:45.671Z,99435.83
2023-10-17T21:56:15.382Z,99432.23
2023-10-17T21:58:47.886Z,99432.29
2023-10-17T22:01:21.562Z,99423.99
2023-10-17T22:03:50.409Z,99421.61
2023-10-17T22:06:21.634Z,99427.98
2023-10-17T22:08:50.188Z,99426.66
2023-10-17T22:11:19.777Z,99425.84
2023-10-17T22:13:52.572Z,99426.98
2023-10-17T22:16:21.827Z,99427.40
2023-10-17T22:18:50.464Z,99428.39
2023-10-17T22:21:21.543Z,99428.38
2023-10-17T22:23:51.780Z,99425.38
2023-10-17T22:26:20.451Z,99423.21
2023-10-17T22:28:48.629Z,99423.81
2023-10-17T22:31:17.101Z,99426.17
2023-10-17T22:33:45.475Z,99424.33
2023-10-17T22:36:13.508Z,99416.69
2023-10-17T22:38:42.037Z,99414.79
2023-10-17T22:41:11.285Z,99413.06
2023-10-17T22:43:39.530Z,99412.03
2023-10-17T22:46:09.600Z,99407.86
2023-10-17T22:48:38.501Z,99405.31
2023-10-17T22:51:06.913Z,99395.67
2023-10-17T22:53:35.106Z,99396.09
2023-10-17T22:56:05.092Z,99397.44
2023-10-17T22:58:33.183Z,99400.86
2023-10-17T23:01:01.217Z,99402.34
2023-10-17T23:03:29.363Z,99400.86
2023-10-17T23:05:57.407Z,99397.12
2023-10-17T23:08:25.741Z,99395.64
2023-10-17T23:10:53.787Z,99397.86
2023-10-17T23:13:22.530Z,99399.36
2023-10-17T23:15:50.644Z,99400.15
2023-10-17T23:18:18.785Z,99403.88
2023-10-17T23:20:46.798Z,99402.89
2023-10-17T23:23:14.823Z,99399.81
2023-10-17T23:25:42.761Z,99399.86
2023-10-17T23:28:12.474Z,99400.23
2023-10-17T23:30:41.591Z,99400.83
2023-10-17T23:33:10.092Z,99399.67
2023-10-17T23:35:38.606Z,99405.27
2023-10-17T23:38:06.665Z,99400.80
2023-10-17T23:40:34.836Z,99403.30
2023-10-17T23:43:03.241Z,99403.80
2023-10-17T23:45:31.198Z,99401.21
2023-10-17T23:47:59.523Z,99397.40
2023-10-17T23:50:27.518Z,99394.65
2023-10-17T23:52:56.155Z,99394.86
2023-10-17T23:55:24.220Z,99391.10
2023-10-17T23:57:53.598Z,99386.97
